Time;durP1;ratioP1;P1;durP2;ratioP2;P2;SDS_P1;SDS_P2;PMS_P1;PMS_P2;Temp;Humidity;BMP_temperature;BMP_pressure;BME280_temperature;BME280_humidity;BME280_pressure;Samples;Min_cycle;Max_cycle;Signal;HPM_P1;HPM_P2
2021/08/21 00:01:52;;;;;;;10.93;6.78;;;25.50;54.60;;;;;;6080863;28;80815;-62
2021/08/21 00:04:53;;;;;;;9.80;6.40;;;25.50;54.60;;;;;;6082748;28;80711;-63
2021/08/21 00:07:53;;;;;;;10.68;6.90;;;25.50;54.70;;;;;;6082521;28;80490;-63
2021/08/21 00:10:54;;;;;;;10.98;6.95;;;25.50;54.80;;;;;;6066419;28;83498;-63
2021/08/21 00:13:54;;;;;;;14.38;7.43;;;25.50;54.70;;;;;;6085560;28;82092;-63
2021/08/21 00:16:55;;;;;;;11.20;6.70;;;25.50;54.80;;;;;;6080163;28;80910;-62
2021/08/21 00:19:55;;;;;;;11.55;6.57;;;25.50;54.80;;;;;;6082226;28;81882;-63
2021/08/21 00:22:56;;;;;;;11.55;6.70;;;25.50;55.00;;;;;;6067054;28;81552;-63
2021/08/21 00:25:56;;;;;;;12.23;6.97;;;25.50;55.10;;;;;;6080924;28;81541;-63
2021/08/21 00:28:58;;;;;;;12.73;6.95;;;25.50;55.00;;;;;;6085673;28;80516;-62
2021/08/21 00:31:58;;;;;;;14.38;6.63;;;25.50;55.30;;;;;;6070905;28;81433;-62
2021/08/21 00:34:59;;;;;;;10.95;7.35;;;25.50;55.30;;;;;;6078654;28;80855;-62
2021/08/21 00:37:59;;;;;;;10.45;6.75;;;25.50;55.00;;;;;;6081410;28;81870;-61
2021/08/21 00:41:00;;;;;;;13.20;6.97;;;25.50;55.40;;;;;;6074112;28;80769;-62
2021/08/21 00:44:00;;;;;;;13.85;8.18;;;25.50;55.50;;;;;;6075969;28;81834;-62
2021/08/21 00:47:01;;;;;;;11.38;7.32;;;25.50;55.30;;;;;;6080499;28;83756;-62
2021/08/21 00:50:02;;;;;;;12.15;7.20;;;25.50;55.40;;;;;;6081125;28;83030;-61
2021/08/21 00:53:03;;;;;;;13.55;7.40;;;25.50;55.30;;;;;;6080607;28;83584;-61
2021/08/21 00:56:03;;;;;;;10.70;6.80;;;25.50;55.30;;;;;;6083565;28;81285;-61
2021/08/21 00:59:06;;;;;;;13.20;7.60;;;25.50;55.30;;;;;;6082630;28;82735;-61
2021/08/21 01:02:06;;;;;;;11.80;7.03;;;25.40;55.40;;;;;;6082508;28;81574;-62
2021/08/21 01:05:08;;;;;;;10.05;6.35;;;25.40;55.30;;;;;;6081926;28;80959;-63
2021/08/21 01:08:09;;;;;;;12.23;6.63;;;25.40;55.60;;;;;;6082840;28;82540;-61
2021/08/21 01:11:23;;;;;;;11.68;6.28;;;25.40;55.50;;;;;;6089607;28;86073;-62
2021/08/21 01:14:27;;;;;;;10.20;6.55;;;25.50;55.40;;;;;;6101370;28;80669;-62
2021/08/21 01:17:28;;;;;;;14.63;6.82;;;25.40;55.50;;;;;;6106633;28;83550;-62
2021/08/21 01:20:30;;;;;;;11.68;6.38;;;25.40;55.60;;;;;;6088998;28;82914;-62
2021/08/21 01:23:30;;;;;;;13.25;7.30;;;25.40;55.40;;;;;;6091079;28;82337;-62
2021/08/21 01:26:36;;;;;;;11.35;6.97;;;25.40;55.40;;;;;;6090155;28;81812;-62
2021/08/21 01:29:40;;;;;;;12.75;6.72;;;25.40;55.40;;;;;;6107459;28;80369;-63
2021/08/21 01:33:00;;;;;;;13.73;6.53;;;25.40;55.30;;;;;;6108882;28;81613;-63
2021/08/21 01:36:02;;;;;;;11.82;6.45;;;25.40;55.10;;;;;;6095134;28;82961;-62
2021/08/21 01:39:04;;;;;;;10.98;7.03;;;25.40;55.10;;;;;;6093849;28;82215;-62
2021/08/21 01:42:18;;;;;;;11.70;6.47;;;25.40;55.40;;;;;;6111732;28;81713;-63
2021/08/21 01:45:19;;;;;;;11.18;6.32;;;25.40;55.40;;;;;;6095970;28;82916;-62
2021/08/21 01:48:20;;;;;;;12.00;6.45;;;25.40;55.30;;;;;;6094962;28;82916;-62
2021/08/21 01:51:21;;;;;;;15.90;6.38;;;25.40;55.60;;;;;;6091074;28;80511;-62
2021/08/21 01:54:22;;;;;;;10.90;7.05;;;25.40;55.40;;;;;;6093307;28;83193;-62
2021/08/21 01:57:22;;;;;;;16.27;7.35;;;25.40;55.30;;;;;;6081808;28;81761;-62
2021/08/21 02:00:33;;;;;;;11.35;6.53;;;25.40;55.40;;;;;;6086634;28;83331;-62
2021/08/21 02:03:35;;;;;;;10.32;6.15;;;25.40;55.20;;;;;;6093207;28;81461;-62
2021/08/21 02:06:36;;;;;;;9.43;6.45;;;25.40;55.50;;;;;;6090951;28;82734;-62
2021/08/21 02:09:37;;;;;;;11.00;6.78;;;25.40;55.40;;;;;;6081863;28;82783;-63
2021/08/21 02:12:38;;;;;;;11.10;7.07;;;25.40;55.30;;;;;;6070163;28;82895;-63
2021/08/21 02:15:38;;;;;;;12.55;7.15;;;25.40;55.50;;;;;;6087395;28;81769;-61
2021/08/21 02:18:39;;;;;;;10.10;6.75;;;25.30;55.30;;;;;;6077353;28;81866;-63
2021/08/21 02:21:47;;;;;;;11.32;6.40;;;25.40;55.40;;;;;;6091203;28;82807;-64
2021/08/21 02:24:52;;;;;;;12.63;7.50;;;25.40;55.40;;;;;;6066520;28;82772;-63
2021/08/21 02:27:58;;;;;;;9.23;6.60;;;25.30;55.40;;;;;;6082215;28;83452;-63
2021/08/21 02:30:59;;;;;;;10.93;7.18;;;25.30;55.50;;;;;;6085087;28;81942;-62
2021/08/21 02:33:59;;;;;;;11.40;6.70;;;25.40;55.60;;;;;;6068319;28;81731;-63
2021/08/21 02:37:00;;;;;;;11.35;6.70;;;25.40;55.50;;;;;;6082555;28;81742;-62
2021/08/21 02:40:00;;;;;;;11.63;7.03;;;25.40;55.60;;;;;;6082849;28;80248;-62
2021/08/21 02:43:01;;;;;;;9.82;6.90;;;25.30;55.50;;;;;;6081113;28;83397;-62
2021/08/21 02:46:02;;;;;;;9.93;6.80;;;25.30;55.40;;;;;;6083852;28;80335;-62
2021/08/21 02:49:03;;;;;;;10.88;6.47;;;25.30;55.60;;;;;;6082461;28;81549;-62
2021/08/21 02:52:03;;;;;;;9.65;6.35;;;25.30;55.40;;;;;;6086070;28;83442;-61
2021/08/21 02:55:04;;;;;;;11.75;6.25;;;25.30;55.70;;;;;;6084663;28;83147;-62
2021/08/21 02:58:07;;;;;;;10.02;6.88;;;25.30;55.40;;;;;;6085455;28;82143;-62
2021/08/21 03:01:12;;;;;;;13.70;6.75;;;25.30;55.50;;;;;;6083474;28;82285;-63
2021/08/21 03:04:13;;;;;;;11.50;6.60;;;25.30;55.80;;;;;;6088787;28;82696;-63
2021/08/21 03:07:14;;;;;;;11.45;7.13;;;25.30;55.50;;;;;;6100515;28;82807;-62
2021/08/21 03:10:21;;;;;;;14.00;7.45;;;25.30;55.50;;;;;;6091973;28;83040;-63
2021/08/21 03:13:35;;;;;;;11.23;6.32;;;25.30;56.00;;;;;;6090433;28;83548;-62
2021/08/21 03:16:35;;;;;;;9.63;6.93;;;25.30;55.60;;;;;;6092671;28;81605;-62
2021/08/21 03:19:36;;;;;;;11.68;7.22;;;25.30;55.70;;;;;;6104245;28;82782;-62
2021/08/21 03:22:36;;;;;;;10.20;6.50;;;25.30;55.60;;;;;;6109847;28;80283;-63
2021/08/21 03:25:38;;;;;;;10.80;7.10;;;25.30;55.50;;;;;;6091816;28;81525;-62
2021/08/21 03:28:38;;;;;;;10.98;6.57;;;25.30;55.40;;;;;;6084183;28;83051;-62
2021/08/21 03:31:39;;;;;;;11.18;6.97;;;25.20;55.30;;;;;;6082408;28;80875;-63
2021/08/21 03:34:40;;;;;;;11.60;6.75;;;25.20;55.30;;;;;;6084843;28;83070;-63
2021/08/21 03:37:40;;;;;;;9.32;6.45;;;25.30;55.40;;;;;;6092560;28;83463;-63
2021/08/21 03:40:41;;;;;;;10.55;6.53;;;25.20;55.40;;;;;;6084740;28;81781;-63
2021/08/21 03:43:48;;;;;;;11.82;7.45;;;25.30;55.30;;;;;;6072768;28;81324;-63
2021/08/21 03:46:48;;;;;;;10.93;7.07;;;25.20;55.30;;;;;;6070840;28;81449;-63
2021/08/21 03:49:50;;;;;;;13.40;6.70;;;25.20;55.30;;;;;;6086103;28;82950;-63
2021/08/21 03:52:50;;;;;;;10.63;6.88;;;25.30;55.50;;;;;;6099746;28;82884;-63
2021/08/21 03:55:51;;;;;;;11.57;7.47;;;25.20;55.20;;;;;;6092578;28;83415;-63
2021/08/21 03:58:52;;;;;;;11.50;7.35;;;25.20;55.40;;;;;;6098327;28;80755;-64
2021/08/21 04:01:52;;;;;;;12.25;7.35;;;25.20;55.30;;;;;;6091714;28;81653;-63
2021/08/21 04:04:59;;;;;;;10.23;6.47;;;25.20;55.30;;;;;;6089808;28;83175;-63
2021/08/21 04:08:00;;;;;;;13.45;6.78;;;25.20;55.20;;;;;;6096534;28;82407;-63
2021/08/21 04:11:01;;;;;;;10.13;6.55;;;25.30;55.40;;;;;;6088544;28;83398;-64
2021/08/21 04:14:03;;;;;;;10.18;6.53;;;25.20;55.20;;;;;;6095445;28;81445;-63
2021/08/21 04:17:04;;;;;;;10.32;6.30;;;25.20;55.40;;;;;;6091755;28;83025;-63
2021/08/21 04:20:04;;;;;;;10.57;6.18;;;25.20;55.30;;;;;;6085425;28;83514;-64
2021/08/21 04:23:07;;;;;;;10.63;6.10;;;25.30;55.70;;;;;;6092021;28;83186;-67
2021/08/21 04:26:10;;;;;;;9.50;6.22;;;25.30;55.80;;;;;;6090219;28;80533;-67
2021/08/21 04:29:13;;;;;;;10.85;6.30;;;25.20;55.50;;;;;;6092890;28;83149;-66
2021/08/21 04:32:13;;;;;;;10.02;5.78;;;25.20;55.40;;;;;;6094255;28;82737;-64
2021/08/21 04:35:14;;;;;;;8.38;5.53;;;25.20;56.00;;;;;;6076320;28;83897;-65
2021/08/21 04:38:15;;;;;;;10.75;6.40;;;25.30;56.00;;;;;;6089469;28;88377;-64
2021/08/21 04:41:26;;;;;;;12.13;5.68;;;25.30;55.90;;;;;;6092942;28;81394;-63
2021/08/21 04:44:28;;;;;;;8.68;6.00;;;25.30;56.60;;;;;;6093003;28;82806;-64
2021/08/21 04:47:29;;;;;;;11.23;6.05;;;25.30;56.90;;;;;;6088964;28;83601;-64
2021/08/21 04:50:29;;;;;;;11.48;6.40;;;25.30;57.80;;;;;;6091010;28;83308;-65
2021/08/21 04:53:30;;;;;;;11.63;6.68;;;25.30;57.90;;;;;;6093257;28;82139;-64
2021/08/21 04:56:31;;;;;;;12.75;6.55;;;25.40;57.60;;;;;;6092132;28;83315;-65
2021/08/21 04:59:54;;;;;;;8.55;5.38;;;25.40;57.40;;;;;;6090664;28;87525;-64
2021/08/21 05:02:57;;;;;;;12.55;5.95;;;25.40;57.90;;;;;;6100400;28;83118;-64
2021/08/21 05:05:59;;;;;;;11.07;6.45;;;25.30;58.10;;;;;;6065037;28;81765;-65
2021/08/21 05:08:59;;;;;;;8.68;5.72;;;25.30;57.90;;;;;;6072388;28;83288;-65
2021/08/21 05:12:01;;;;;;;14.98;6.65;;;25.40;58.00;;;;;;6096013;28;80572;-65
2021/08/21 05:15:07;;;;;;;10.55;6.07;;;25.30;58.40;;;;;;6094886;28;81949;-65
2021/08/21 05:18:09;;;;;;;11.55;6.25;;;25.40;58.50;;;;;;6095245;28;82594;-65
2021/08/21 05:21:26;;;;;;;9.13;5.90;;;25.30;58.60;;;;;;6090675;28;85456;-64
2021/08/21 05:24:26;;;;;;;12.63;6.72;;;25.40;58.50;;;;;;6074123;28;83179;-65
2021/08/21 05:27:28;;;;;;;12.68;6.07;;;25.40;58.30;;;;;;6073835;28;83288;-65
2021/08/21 05:30:30;;;;;;;9.20;5.95;;;25.50;58.10;;;;;;6110949;28;81541;-64
2021/08/21 05:33:31;;;;;;;14.75;6.57;;;25.40;58.20;;;;;;6109420;28;80414;-65
2021/08/21 05:36:31;;;;;;;9.85;6.05;;;25.40;58.20;;;;;;6111543;28;80772;-65
2021/08/21 05:39:32;;;;;;;9.93;5.93;;;25.40;58.10;;;;;;6085784;28;83351;-64
2021/08/21 05:42:33;;;;;;;11.52;7.00;;;25.40;57.70;;;;;;6095386;28;80536;-64
2021/08/21 05:45:33;;;;;;;11.55;6.47;;;25.40;57.80;;;;;;6095563;28;81605;-64
2021/08/21 05:48:34;;;;;;;11.45;6.15;;;25.40;57.90;;;;;;6111730;28;81090;-66
2021/08/21 05:51:35;;;;;;;14.18;6.45;;;25.50;57.80;;;;;;6111248;28;80598;-64
2021/08/21 05:54:36;;;;;;;10.85;6.25;;;25.40;57.60;;;;;;6112789;28;81448;-63
2021/08/21 05:57:44;;;;;;;17.45;7.18;;;25.40;57.80;;;;;;6097103;28;81339;-63
2021/08/21 06:00:44;;;;;;;12.27;7.15;;;25.40;57.60;;;;;;6115236;28;80746;-64
2021/08/21 06:03:45;;;;;;;15.98;7.47;;;25.40;57.80;;;;;;6117114;28;80218;-64
2021/08/21 06:06:45;;;;;;;15.63;7.65;;;25.40;57.90;;;;;;6109888;28;86983;-64
2021/08/21 06:09:46;;;;;;;17.08;7.90;;;25.40;57.80;;;;;;6095336;28;82989;-64
2021/08/21 06:12:47;;;;;;;13.30;7.95;;;25.40;58.00;;;;;;6092724;28;83278;-64
2021/08/21 06:15:48;;;;;;;16.33;7.60;;;25.40;58.10;;;;;;6112795;28;80662;-64
2021/08/21 06:18:48;;;;;;;11.60;6.57;;;25.50;58.30;;;;;;6110319;28;80604;-65
2021/08/21 06:21:49;;;;;;;14.88;7.85;;;25.40;58.00;;;;;;6110901;28;82155;-64
2021/08/21 06:24:49;;;;;;;13.88;7.40;;;25.50;58.30;;;;;;6110900;28;80876;-65
2021/08/21 06:27:52;;;;;;;14.70;7.97;;;25.50;57.70;;;;;;6112145;28;81381;-65
2021/08/21 06:30:52;;;;;;;13.50;7.50;;;25.50;57.40;;;;;;6111602;28;81043;-65
2021/08/21 06:33:53;;;;;;;11.20;6.97;;;25.50;58.30;;;;;;6111701;28;81088;-64
2021/08/21 06:36:53;;;;;;;13.32;7.95;;;25.40;57.00;;;;;;6092811;28;83325;-64
2021/08/21 06:39:54;;;;;;;14.93;8.50;;;25.40;57.00;;;;;;6113268;28;80366;-66
2021/08/21 06:42:54;;;;;;;13.02;7.38;;;25.40;57.30;;;;;;6119419;28;81765;-66
2021/08/21 06:46:15;;;;;;;13.85;8.50;;;25.40;57.10;;;;;;6095779;28;81607;-64
2021/08/21 06:49:15;;;;;;;14.82;8.23;;;25.40;57.20;;;;;;6109331;28;82181;-64
2021/08/21 06:52:16;;;;;;;15.75;8.00;;;25.40;56.70;;;;;;6113563;28;80662;-64
2021/08/21 06:55:16;;;;;;;12.77;7.95;;;25.40;57.10;;;;;;6110333;28;80991;-63
2021/08/21 06:58:17;;;;;;;11.30;7.60;;;25.40;56.70;;;;;;6109842;28;81442;-63
2021/08/21 07:01:17;;;;;;;16.65;7.45;;;25.40;56.70;;;;;;6106480;28;80649;-62
2021/08/21 07:04:18;;;;;;;15.10;7.55;;;25.40;56.20;;;;;;6110635;28;81630;-63
2021/08/21 07:07:18;;;;;;;16.13;8.85;;;25.40;56.50;;;;;;6109024;28;80857;-63
2021/08/21 07:10:19;;;;;;;15.63;8.13;;;25.40;56.40;;;;;;6093645;28;80616;-62
2021/08/21 07:13:19;;;;;;;14.25;9.00;;;25.40;56.60;;;;;;6109105;28;81475;-63
2021/08/21 07:16:20;;;;;;;13.05;8.05;;;25.40;56.50;;;;;;6109592;28;80412;-63
2021/08/21 07:19:20;;;;;;;15.98;8.52;;;25.30;56.70;;;;;;6111623;28;80967;-65
2021/08/21 07:22:21;;;;;;;13.68;8.57;;;25.30;56.50;;;;;;6110802;28;81753;-64
2021/08/21 07:25:21;;;;;;;15.98;8.32;;;25.40;56.60;;;;;;6110702;28;81859;-64
2021/08/21 07:28:22;;;;;;;15.07;9.48;;;25.30;56.60;;;;;;6109090;28;80456;-64
2021/08/21 07:31:22;;;;;;;10.52;7.32;;;25.30;56.70;;;;;;6109160;28;80688;-67
2021/08/21 07:34:23;;;;;;;15.05;8.23;;;25.30;56.60;;;;;;6107372;28;80204;-67
2021/08/21 07:37:23;;;;;;;14.07;7.57;;;25.30;56.60;;;;;;6110353;28;80664;-66
2021/08/21 07:40:24;;;;;;;17.83;8.52;;;25.20;56.40;;;;;;6094628;28;82904;-64
2021/08/21 07:43:24;;;;;;;16.77;7.95;;;25.20;56.50;;;;;;6086620;28;81188;-63
2021/08/21 07:46:25;;;;;;;15.55;8.60;;;25.20;56.30;;;;;;6083964;28;80866;-63
2021/08/21 07:49:25;;;;;;;14.73;6.97;;;25.20;56.60;;;;;;6087488;28;80654;-63
2021/08/21 07:52:26;;;;;;;13.90;8.20;;;25.20;56.20;;;;;;6100214;28;80537;-62
2021/08/21 07:55:26;;;;;;;13.85;7.82;;;25.20;56.60;;;;;;6110562;28;82196;-64
2021/08/21 07:58:27;;;;;;;11.15;6.90;;;25.20;56.40;;;;;;6108664;28;80578;-63
2021/08/21 08:01:27;;;;;;;16.50;7.32;;;25.30;56.20;;;;;;6099488;28;81019;-63
2021/08/21 08:04:28;;;;;;;12.80;7.25;;;25.30;57.00;;;;;;6094997;28;80637;-63
2021/08/21 08:07:28;;;;;;;9.75;6.47;;;25.30;56.70;;;;;;6076557;28;81225;-63
2021/08/21 08:10:29;;;;;;;16.75;6.70;;;25.30;56.40;;;;;;6088016;28;80495;-65
2021/08/21 08:13:29;;;;;;;17.08;6.85;;;25.30;56.30;;;;;;6088704;28;80680;-64
2021/08/21 08:16:30;;;;;;;11.52;6.70;;;25.30;56.20;;;;;;6086132;28;81387;-63
2021/08/21 08:19:30;;;;;;;12.60;6.97;;;25.30;56.10;;;;;;6087290;28;80427;-63
2021/08/21 08:22:31;;;;;;;12.52;6.53;;;25.30;56.60;;;;;;6087640;28;81397;-64
2021/08/21 08:25:31;;;;;;;12.25;6.68;;;25.40;55.90;;;;;;6083772;28;80876;-63
2021/08/21 08:28:32;;;;;;;16.98;6.60;;;25.40;56.00;;;;;;6091470;28;82438;-64
2021/08/21 08:31:32;;;;;;;9.80;6.28;;;25.40;55.30;;;;;;6107129;28;81474;-64
2021/08/21 08:34:33;;;;;;;13.00;6.05;;;25.40;54.90;;;;;;6096784;28;80430;-64
2021/08/21 08:37:33;;;;;;;9.77;5.82;;;25.40;54.50;;;;;;6088504;28;80989;-63
2021/08/21 08:40:34;;;;;;;8.98;5.47;;;25.40;54.00;;;;;;6079670;28;80487;-63
2021/08/21 08:43:34;;;;;;;10.18;5.55;;;25.40;54.20;;;;;;6085033;28;81564;-64
2021/08/21 08:46:35;;;;;;;14.13;5.63;;;25.40;53.70;;;;;;6087677;28;80378;-64
2021/08/21 08:49:35;;;;;;;7.63;4.90;;;25.40;52.30;;;;;;6084621;28;80377;-64
2021/08/21 08:52:35;;;;;;;8.05;4.65;;;25.30;51.10;;;;;;6083605;28;81615;-64
2021/08/21 08:55:36;;;;;;;9.05;5.13;;;25.30;51.20;;;;;;6085860;28;80873;-64
2021/08/21 08:58:38;;;;;;;10.55;4.63;;;25.30;51.30;;;;;;6085184;28;80477;-64
2021/08/21 09:01:38;;;;;;;6.72;4.70;;;25.30;51.30;;;;;;6083929;28;80573;-64
2021/08/21 09:04:42;;;;;;;7.00;4.93;;;25.30;51.60;;;;;;6086537;28;80384;-65
2021/08/21 09:07:42;;;;;;;8.20;4.90;;;25.30;50.40;;;;;;6086877;28;80243;-64
2021/08/21 09:10:44;;;;;;;7.43;4.53;;;25.40;51.00;;;;;;6085952;28;80506;-64
2021/08/21 09:13:45;;;;;;;6.05;4.35;;;25.40;51.50;;;;;;6087989;28;81726;-64
2021/08/21 09:16:45;;;;;;;6.82;4.45;;;25.40;51.50;;;;;;6056622;28;80265;-63
2021/08/21 09:19:46;;;;;;;8.70;4.50;;;25.50;51.60;;;;;;6088666;28;80579;-64
2021/08/21 09:22:46;;;;;;;7.70;5.22;;;25.50;50.90;;;;;;6086846;28;81453;-64
2021/08/21 09:25:47;;;;;;;6.65;4.95;;;25.50;50.80;;;;;;6086793;28;80324;-64
2021/08/21 09:28:48;;;;;;;7.35;5.22;;;25.40;50.30;;;;;;6087021;28;80333;-63
2021/08/21 09:31:49;;;;;;;9.38;5.25;;;25.40;50.30;;;;;;6086627;28;80157;-63
2021/08/21 09:34:49;;;;;;;6.88;5.28;;;25.40;50.00;;;;;;6086881;28;80568;-64
2021/08/21 09:37:50;;;;;;;9.00;5.13;;;25.40;50.00;;;;;;6086197;28;80873;-65
2021/08/21 09:40:50;;;;;;;10.95;6.13;;;25.50;50.30;;;;;;6087593;28;82278;-65
2021/08/21 09:43:51;;;;;;;8.73;5.03;;;25.50;50.60;;;;;;6086674;28;81697;-65
2021/08/21 09:46:51;;;;;;;5.18;4.30;;;25.50;50.60;;;;;;6084486;28;80376;-64
2021/08/21 09:49:52;;;;;;;6.55;5.22;;;25.50;50.80;;;;;;6086108;28;80448;-64
2021/08/21 09:52:52;;;;;;;6.00;4.97;;;25.60;50.70;;;;;;6094333;28;83244;-64
2021/08/21 09:55:53;;;;;;;6.95;5.30;;;25.60;50.50;;;;;;6113760;28;80294;-66
2021/08/21 09:58:53;;;;;;;7.25;5.35;;;25.50;49.80;;;;;;6110643;28;80118;-66
2021/08/21 10:01:54;;;;;;;6.88;4.90;;;25.50;50.40;;;;;;6112721;28;80873;-66
2021/08/21 10:04:55;;;;;;;11.20;5.38;;;25.50;50.50;;;;;;6111935;28;80831;-67
2021/08/21 10:10:59;;;;;;;6.38;5.18;;;25.50;50.50;;;;;;6113200;28;80926;-67
2021/08/21 10:13:59;;;;;;;7.22;5.47;;;25.60;50.60;;;;;;6113997;28;81102;-66
2021/08/21 10:17:00;;;;;;;7.78;5.63;;;25.50;50.20;;;;;;6095868;28;81338;-66
2021/08/21 10:20:00;;;;;;;6.78;5.13;;;25.50;50.40;;;;;;6091122;28;82084;-66
2021/08/21 10:23:01;;;;;;;6.57;5.18;;;25.60;50.50;;;;;;6107241;28;81341;-66
2021/08/21 10:26:01;;;;;;;9.18;6.03;;;25.60;50.70;;;;;;6110640;28;81223;-66
2021/08/21 10:29:02;;;;;;;8.55;5.50;;;25.60;50.60;;;;;;6111392;28;80984;-66
2021/08/21 10:32:02;;;;;;;8.93;6.15;;;25.50;50.70;;;;;;6112837;28;80617;-66
2021/08/21 10:35:03;;;;;;;7.13;5.80;;;25.50;50.60;;;;;;6112245;28;81676;-66
2021/08/21 10:38:04;;;;;;;11.38;5.75;;;25.50;50.50;;;;;;6090278;28;80379;-66
2021/08/21 10:41:04;;;;;;;8.63;6.32;;;25.50;50.50;;;;;;6086998;28;81087;-66
2021/08/21 10:44:05;;;;;;;7.60;6.15;;;25.40;50.50;;;;;;6102613;28;80633;-66
2021/08/21 10:47:05;;;;;;;8.52;6.18;;;25.50;50.40;;;;;;6102191;28;81690;-66
2021/08/21 10:50:06;;;;;;;8.68;6.32;;;25.40;50.60;;;;;;6087761;28;80497;-66
2021/08/21 10:53:06;;;;;;;8.18;6.40;;;25.50;50.70;;;;;;6088120;28;81471;-66
2021/08/21 10:56:07;;;;;;;10.48;6.97;;;25.50;50.90;;;;;;6069117;28;82642;-66
2021/08/21 10:59:07;;;;;;;9.80;6.25;;;25.50;50.70;;;;;;6083898;28;80693;-66
2021/08/21 11:02:08;;;;;;;11.88;6.85;;;25.50;51.10;;;;;;6074394;28;80444;-66
2021/08/21 11:05:08;;;;;;;12.05;5.90;;;25.50;50.60;;;;;;6085366;28;80357;-67
2021/08/21 11:08:09;;;;;;;7.65;5.88;;;25.50;50.40;;;;;;6079540;28;81274;-67
2021/08/21 11:14:19;;;;;;;6.13;4.93;;;25.50;49.50;;;;;;6084468;28;80541;-68
2021/08/21 11:17:19;;;;;;;7.50;5.28;;;25.50;49.10;;;;;;6077607;28;80907;-67
2021/08/21 11:20:20;;;;;;;8.73;5.53;;;25.50;48.70;;;;;;6079549;28;80392;-67
2021/08/21 11:23:20;;;;;;;7.63;5.30;;;25.50;48.30;;;;;;6081958;28;83259;-67
2021/08/21 11:26:22;;;;;;;7.80;5.15;;;25.60;48.60;;;;;;6085981;28;80566;-65
2021/08/21 11:29:22;;;;;;;8.88;5.30;;;25.60;48.40;;;;;;6084035;28;82172;-65
2021/08/21 11:32:23;;;;;;;12.32;5.70;;;25.60;48.20;;;;;;6085622;28;80710;-63
2021/08/21 11:35:24;;;;;;;19.13;5.43;;;25.60;48.20;;;;;;6084069;28;80822;-64
2021/08/21 11:38:25;;;;;;;7.13;5.47;;;25.50;48.50;;;;;;6085064;28;80536;-65
2021/08/21 11:41:25;;;;;;;11.07;5.63;;;25.50;47.10;;;;;;6081764;28;80858;-64
2021/08/21 11:44:26;;;;;;;6.78;5.15;;;25.50;47.60;;;;;;6083141;28;81777;-64
2021/08/21 11:47:26;;;;;;;7.43;5.47;;;25.50;47.10;;;;;;6085407;28;81211;-65
2021/08/21 11:50:28;;;;;;;11.25;7.25;;;25.60;47.20;;;;;;6084267;28;87524;-65
2021/08/21 11:53:28;;;;;;;16.65;8.82;;;25.60;48.30;;;;;;6080465;28;81188;-64
2021/08/21 11:56:29;;;;;;;11.65;7.57;;;25.70;47.60;;;;;;6087367;28;80936;-64
2021/08/21 11:59:30;;;;;;;12.68;7.38;;;25.70;47.50;;;;;;6085344;28;80582;-63
2021/08/21 12:02:30;;;;;;;11.70;6.97;;;25.70;47.10;;;;;;6081706;28;81696;-64
2021/08/21 12:05:31;;;;;;;12.43;6.90;;;25.70;47.30;;;;;;6083317;28;81476;-64
2021/08/21 12:08:31;;;;;;;9.70;6.38;;;25.70;47.30;;;;;;6083973;28;81588;-64
2021/08/21 12:11:32;;;;;;;8.95;6.47;;;25.70;47.60;;;;;;6082160;28;81427;-64
2021/08/21 12:14:32;;;;;;;7.38;6.05;;;25.70;47.70;;;;;;6111176;28;80258;-63
2021/08/21 12:17:33;;;;;;;8.73;6.18;;;25.70;47.80;;;;;;6110258;28;80700;-64
2021/08/21 12:20:33;;;;;;;8.77;6.18;;;25.70;48.00;;;;;;6111915;28;80576;-65
2021/08/21 12:23:34;;;;;;;8.65;6.20;;;25.70;48.10;;;;;;6110804;28;80545;-64
2021/08/21 12:26:34;;;;;;;6.68;5.68;;;25.70;48.40;;;;;;6107529;28;80976;-63
2021/08/21 12:29:35;;;;;;;8.90;6.20;;;25.70;48.20;;;;;;6108339;28;80854;-65
2021/08/21 12:32:35;;;;;;;7.22;5.97;;;25.70;48.10;;;;;;6107605;28;80194;-64
2021/08/21 12:35:36;;;;;;;6.78;5.75;;;25.70;47.10;;;;;;6086098;28;81614;-63
2021/08/21 12:38:36;;;;;;;8.25;5.75;;;25.70;47.10;;;;;;6109972;28;80268;-64
2021/08/21 12:41:38;;;;;;;8.35;6.47;;;25.70;47.20;;;;;;6109024;28;80739;-65
2021/08/21 12:44:39;;;;;;;6.63;5.80;;;25.70;47.20;;;;;;6110116;28;86144;-64
2021/08/21 12:47:39;;;;;;;7.35;5.63;;;25.70;46.50;;;;;;6109716;28;80476;-64
2021/08/21 12:50:40;;;;;;;10.32;6.50;;;25.70;46.20;;;;;;6108766;28;80522;-65
2021/08/21 12:53:41;;;;;;;7.78;6.10;;;25.70;46.10;;;;;;6111730;28;80859;-65
2021/08/21 12:56:41;;;;;;;8.30;6.60;;;25.70;45.90;;;;;;6106663;28;82762;-64
2021/08/21 12:59:42;;;;;;;7.72;5.75;;;25.70;46.10;;;;;;6113041;28;80412;-64
2021/08/21 13:02:42;;;;;;;13.13;6.30;;;25.70;46.20;;;;;;6107522;28;81931;-64
2021/08/21 13:05:43;;;;;;;8.52;6.10;;;25.70;46.40;;;;;;6108547;28;80618;-64
2021/08/21 13:08:43;;;;;;;8.50;6.70;;;25.70;46.40;;;;;;6109404;28;84249;-64
2021/08/21 13:11:44;;;;;;;11.82;5.75;;;25.70;46.60;;;;;;6110099;28;80514;-64
2021/08/21 13:14:44;;;;;;;7.70;5.78;;;25.70;47.00;;;;;;6106854;28;82818;-65
2021/08/21 13:17:45;;;;;;;10.30;6.63;;;25.70;47.00;;;;;;6109174;28;80989;-64
2021/08/21 13:20:45;;;;;;;7.50;6.00;;;25.70;47.20;;;;;;6108265;28;80639;-65
2021/08/21 13:23:46;;;;;;;8.75;6.53;;;25.70;47.10;;;;;;6075498;28;81566;-63
2021/08/21 13:26:46;;;;;;;9.27;6.40;;;25.70;47.00;;;;;;6109571;28;81137;-63
2021/08/21 13:29:47;;;;;;;9.13;6.47;;;25.70;46.60;;;;;;6109300;28;81401;-64
2021/08/21 13:32:47;;;;;;;7.45;6.13;;;25.70;46.60;;;;;;6108544;28;81432;-64
2021/08/21 13:35:48;;;;;;;6.75;6.05;;;25.70;46.80;;;;;;6109889;28;80441;-66
2021/08/21 13:38:48;;;;;;;8.52;6.10;;;25.70;45.10;;;;;;6108265;28;80997;-63
2021/08/21 13:41:49;;;;;;;9.70;6.18;;;25.80;45.10;;;;;;6113265;28;81366;-64
2021/08/21 13:44:49;;;;;;;8.30;5.53;;;25.80;45.50;;;;;;6119409;28;80659;-65
2021/08/21 13:47:50;;;;;;;8.07;5.93;;;25.80;46.30;;;;;;6111434;28;80713;-63
2021/08/21 13:50:50;;;;;;;6.90;6.07;;;25.80;46.00;;;;;;6114950;28;80423;-65
2021/08/21 13:53:50;;;;;;;6.28;5.15;;;25.80;45.80;;;;;;6111191;28;80574;-64
2021/08/21 13:56:51;;;;;;;7.00;5.40;;;25.80;45.20;;;;;;6111353;28;80259;-65
2021/08/21 13:59:51;;;;;;;9.55;6.15;;;25.90;45.00;;;;;;6113508;28;80869;-65
2021/08/21 14:02:52;;;;;;;12.80;6.40;;;25.90;44.60;;;;;;6117919;28;80995;-66
2021/08/21 14:05:52;;;;;;;7.72;6.15;;;25.90;44.70;;;;;;6110812;28;80251;-65
2021/08/21 14:08:54;;;;;;;6.93;5.97;;;26.00;44.90;;;;;;6094745;28;80429;-64
2021/08/21 14:11:54;;;;;;;7.28;5.82;;;25.90;45.30;;;;;;6111604;28;80703;-63
2021/08/21 14:14:55;;;;;;;8.02;5.53;;;25.90;45.10;;;;;;6117414;28;81485;-63
2021/08/21 14:17:55;;;;;;;6.70;5.72;;;26.00;45.10;;;;;;6111757;28;81834;-64
2021/08/21 14:20:56;;;;;;;7.78;5.78;;;26.00;45.30;;;;;;6112519;28;80429;-63
2021/08/21 14:23:56;;;;;;;9.38;6.32;;;26.00;45.40;;;;;;6094973;28;80567;-64
2021/08/21 14:26:57;;;;;;;7.57;6.00;;;26.00;45.90;;;;;;6108186;28;81290;-65
2021/08/21 14:29:57;;;;;;;6.25;5.65;;;26.00;46.30;;;;;;6090410;28;87562;-64
2021/08/21 14:32:57;;;;;;;9.63;6.18;;;26.00;46.30;;;;;;6111760;28;82460;-65
2021/08/21 14:35:58;;;;;;;7.28;5.93;;;26.00;46.40;;;;;;6112732;28;81708;-64
2021/08/21 14:38:58;;;;;;;7.47;5.95;;;26.00;46.60;;;;;;6110344;28;81404;-65
2021/08/21 14:41:59;;;;;;;9.48;5.45;;;25.90;46.70;;;;;;6114183;28;80385;-65
2021/08/21 14:44:59;;;;;;;12.27;6.38;;;25.90;46.90;;;;;;6110378;28;81487;-65
2021/08/21 14:48:00;;;;;;;6.75;6.03;;;25.90;47.10;;;;;;6108129;28;80401;-65
2021/08/21 14:51:01;;;;;;;7.85;5.90;;;25.90;47.00;;;;;;6112218;28;81138;-66
2021/08/21 14:54:02;;;;;;;8.95;6.07;;;25.90;47.20;;;;;;6111820;28;80412;-66
2021/08/21 14:57:02;;;;;;;9.32;6.18;;;26.00;47.20;;;;;;6105320;28;80997;-67
2021/08/21 15:00:03;;;;;;;7.72;6.10;;;25.90;47.10;;;;;;6119282;28;80573;-65
2021/08/21 15:03:03;;;;;;;6.57;5.72;;;25.90;46.90;;;;;;6110799;28;80639;-65
2021/08/21 15:06:04;;;;;;;9.40;5.85;;;25.90;47.10;;;;;;6109777;28;80994;-65
2021/08/21 15:09:04;;;;;;;8.60;5.95;;;25.90;47.40;;;;;;6112412;28;80592;-65
2021/08/21 15:12:05;;;;;;;10.23;5.63;;;25.90;47.00;;;;;;6112945;28;81713;-66
2021/08/21 15:15:06;;;;;;;7.25;5.95;;;25.90;46.50;;;;;;6112022;28;81671;-66
2021/08/21 15:18:06;;;;;;;7.25;5.82;;;25.90;46.40;;;;;;6111363;28;81467;-67
2021/08/21 15:21:07;;;;;;;8.05;6.00;;;25.90;46.50;;;;;;6105448;28;80730;-68
2021/08/21 15:24:08;;;;;;;10.15;6.45;;;25.90;46.50;;;;;;6115172;28;81788;-66
2021/08/21 15:27:08;;;;;;;9.35;5.43;;;25.90;46.40;;;;;;6111813;28;80755;-67
2021/08/21 15:30:08;;;;;;;12.25;6.15;;;25.80;46.40;;;;;;6091609;28;81497;-66
2021/08/21 15:33:09;;;;;;;8.55;5.30;;;25.90;46.70;;;;;;6110176;28;80516;-65
2021/08/21 15:36:09;;;;;;;8.55;5.88;;;25.90;46.90;;;;;;6105084;28;81047;-65
2021/08/21 15:39:10;;;;;;;10.10;5.93;;;25.80;47.30;;;;;;6103428;28;80231;-66
2021/08/21 15:42:13;;;;;;;7.68;5.78;;;25.90;47.40;;;;;;6102780;28;81488;-65